Time;durP1;ratioP1;P1;durP2;ratioP2;P2;SDS_P1;SDS_P2;PMS_P1;PMS_P2;Temp;Humidity;BMP_temperature;BMP_pressure;BME280_temperature;BME280_humidity;BME280_pressure;Samples;Min_cycle;Max_cycle;Signal;HPM_P1;HPM_P2
2024/03/04 00:00:38;;;;;;;;;;;;;;;28.11;20.88;97260.13;5078886;28;20427;-82
2024/03/04 00:03:04;;;;;;;;;;;;;;;28.16;20.93;97253.84;5092892;28;19916;-82
2024/03/04 00:05:34;;;;;;;;;;;;;;;27.87;21.29;97249.59;5089491;28;19965;-81
2024/03/04 00:08:01;;;;;;;;;;;;;;;27.89;21.00;97247.09;5088160;28;19927;-81
2024/03/04 00:10:29;;;;;;;;;;;;;;;28.02;20.95;97246.88;5092307;28;20292;-81
2024/03/04 00:12:55;;;;;;;;;;;;;;;28.16;20.79;97248.19;5082701;28;19920;-81
2024/03/04 00:15:23;;;;;;;;;;;;;;;28.17;20.66;97247.69;5094130;28;20383;-81
2024/03/04 00:17:50;;;;;;;;;;;;;;;28.06;20.67;97248.25;5094030;28;19919;-81
2024/03/04 00:20:16;;;;;;;;;;;;;;;27.75;21.05;97247.03;5095580;28;19963;-81
2024/03/04 00:22:45;;;;;;;;;;;;;;;27.60;21.27;97241.31;5095820;28;19924;-81
2024/03/04 00:25:15;;;;;;;;;;;;;;;27.72;20.99;97239.53;5096426;28;19947;-81
2024/03/04 00:27:45;;;;;;;;;;;;;;;27.81;20.87;97245.91;5093340;28;19924;-81
2024/03/04 00:30:12;;;;;;;;;;;;;;;27.92;20.74;97240.50;5090420;28;20010;-81
2024/03/04 00:32:38;;;;;;;;;;;;;;;27.95;20.64;97245.19;5093803;28;19966;-81
2024/03/04 00:35:09;;;;;;;;;;;;;;;27.78;20.78;97243.25;5096359;28;20290;-81
2024/03/04 00:37:35;;;;;;;;;;;;;;;27.68;20.81;97241.75;5093389;28;19960;-81
2024/03/04 00:40:06;;;;;;;;;;;;;;;26.95;21.29;97238.41;5095464;28;19924;-81
2024/03/04 00:42:32;;;;;;;;;;;;;;;27.06;21.39;97238.69;5091739;28;19924;-81
2024/03/04 00:44:59;;;;;;;;;;;;;;;27.37;21.30;97245.66;5092091;28;19973;-81
2024/03/04 00:47:25;;;;;;;;;;;;;;;27.63;20.97;97243.19;5089128;28;20340;-81
2024/03/04 00:49:51;;;;;;;;;;;;;;;27.69;20.83;97246.13;5092915;28;19943;-81
2024/03/04 00:52:17;;;;;;;;;;;;;;;27.82;21.03;97253.09;5092995;28;19973;-81
2024/03/04 00:54:43;;;;;;;;;;;;;;;27.76;20.65;97249.38;5088552;28;19947;-81
2024/03/04 00:57:09;;;;;;;;;;;;;;;27.29;21.18;97244.41;5092542;28;19924;-81
2024/03/04 00:59:37;;;;;;;;;;;;;;;26.92;21.45;97247.81;5076191;28;20284;-81
2024/03/04 01:02:05;;;;;;;;;;;;;;;26.69;21.87;97247.22;5083880;28;19927;-81
2024/03/04 01:04:31;;;;;;;;;;;;;;;26.76;21.65;97243.31;5086665;28;19959;-81
2024/03/04 01:06:57;;;;;;;;;;;;;;;26.58;21.75;97249.69;5091630;28;19926;-81
2024/03/04 01:09:23;;;;;;;;;;;;;;;26.77;21.72;97246.91;5093648;28;19924;-81
2024/03/04 01:11:49;;;;;;;;;;;;;;;26.98;21.30;97249.50;5089522;28;20360;-81
2024/03/04 01:14:15;;;;;;;;;;;;;;;27.27;21.35;97251.78;5092597;28;20006;-81
2024/03/04 01:16:41;;;;;;;;;;;;;;;27.19;21.66;97242.09;5092009;28;20010;-81
2024/03/04 01:19:08;;;;;;;;;;;;;;;26.83;22.17;97245.81;5095854;28;19920;-81
2024/03/04 01:21:34;;;;;;;;;;;;;;;27.06;22.19;97247.94;5096309;28;20336;-81
2024/03/04 01:24:00;;;;;;;;;;;;;;;26.92;22.14;97240.13;5093588;28;19920;-81
2024/03/04 01:26:27;;;;;;;;;;;;;;;26.79;22.58;97245.19;5095039;28;19966;-81
2024/03/04 01:28:53;;;;;;;;;;;;;;;26.64;22.45;97241.41;5094797;28;19920;-81
2024/03/04 01:31:21;;;;;;;;;;;;;;;26.51;22.76;97250.03;5089931;28;20407;-80
2024/03/04 01:33:49;;;;;;;;;;;;;;;26.35;23.29;97244.72;5066325;28;19946;-81
2024/03/04 01:36:15;;;;;;;;;;;;;;;25.66;23.92;97244.47;5090088;28;20387;-81
2024/03/04 01:38:41;;;;;;;;;;;;;;;25.84;23.80;97249.34;5094507;28;20072;-80
2024/03/04 01:41:07;;;;;;;;;;;;;;;26.04;23.61;97249.69;5095421;28;20291;-81
2024/03/04 01:43:34;;;;;;;;;;;;;;;26.42;23.28;97247.22;5090779;28;20436;-81
2024/03/04 01:46:00;;;;;;;;;;;;;;;26.48;23.11;97241.75;5091588;28;19927;-80
2024/03/04 01:48:26;;;;;;;;;;;;;;;26.28;23.48;97244.28;5087060;28;20411;-81
2024/03/04 01:50:54;;;;;;;;;;;;;;;26.61;22.86;97245.97;5057141;28;20376;-81
2024/03/04 01:53:22;;;;;;;;;;;;;;;26.15;23.67;97249.25;5090826;28;19973;-81
2024/03/04 01:55:52;;;;;;;;;;;;;;;25.37;24.51;97247.63;5092036;28;19963;-80
2024/03/04 01:58:19;;;;;;;;;;;;;;;25.53;24.76;97254.28;5094930;28;19978;-80
2024/03/04 02:00:48;;;;;;;;;;;;;;;24.59;25.60;97249.84;5091032;28;19928;-80
2024/03/04 02:03:16;;;;;;;;;;;;;;;24.36;26.30;97252.31;5085082;28;19920;-80
2024/03/04 02:05:46;;;;;;;;;;;;;;;24.75;25.67;97257.28;5090218;28;20021;-79
2024/03/04 02:08:12;;;;;;;;;;;;;;;24.27;26.62;97258.63;5089846;28;19924;-81
2024/03/04 02:10:39;;;;;;;;;;;;;;;23.51;27.81;97258.00;5093553;28;19920;-81
2024/03/04 02:13:05;;;;;;;;;;;;;;;23.10;28.25;97256.09;5090383;28;20441;-81
2024/03/04 02:15:34;;;;;;;;;;;;;;;21.70;30.31;97255.22;5092452;28;19924;-82
2024/03/04 02:18:01;;;;;;;;;;;;;;;21.93;30.23;97255.06;5088545;28;19924;-82
2024/03/04 02:20:27;;;;;;;;;;;;;;;22.85;28.99;97266.50;5092549;28;19966;-82
2024/03/04 02:22:54;;;;;;;;;;;;;;;21.99;30.59;97265.25;5094256;28;19928;-81
2024/03/04 02:25:22;;;;;;;;;;;;;;;23.43;28.67;97267.91;5093466;28;19924;-82
2024/03/04 02:27:48;;;;;;;;;;;;;;;23.38;28.32;97262.06;5091653;28;19920;-81
2024/03/04 02:30:14;;;;;;;;;;;;;;;24.10;27.48;97268.47;5091004;28;19922;-81
2024/03/04 02:32:41;;;;;;;;;;;;;;;24.07;27.38;97277.00;5091681;28;20040;-81
2024/03/04 02:35:10;;;;;;;;;;;;;;;24.62;26.85;97268.56;5088979;28;19928;-81
2024/03/04 02:37:37;;;;;;;;;;;;;;;24.34;26.81;97271.63;5087041;28;19927;-81
2024/03/04 02:40:06;;;;;;;;;;;;;;;23.92;27.75;97266.22;5088016;28;20368;-81
2024/03/04 02:42:32;;;;;;;;;;;;;;;24.41;26.71;97268.56;5090007;28;19977;-81
2024/03/04 02:44:59;;;;;;;;;;;;;;;24.70;26.59;97266.28;5092342;28;19927;-82
2024/03/04 02:47:25;;;;;;;;;;;;;;;25.03;26.04;97270.25;5091752;28;20014;-82
2024/03/04 02:49:51;;;;;;;;;;;;;;;25.07;25.69;97281.34;5088569;28;19931;-82
2024/03/04 02:52:17;;;;;;;;;;;;;;;24.94;25.96;97281.44;5092569;28;19920;-82
2024/03/04 02:54:43;;;;;;;;;;;;;;;25.01;26.07;97288.81;5093201;28;20322;-82
2024/03/04 02:57:10;;;;;;;;;;;;;;;24.89;25.91;97282.03;5092504;28;20384;-82
2024/03/04 02:59:37;;;;;;;;;;;;;;;24.80;26.53;97287.59;5090986;28;19934;-81
2024/03/04 03:02:05;;;;;;;;;;;;;;;25.21;25.75;97290.00;5073096;28;19967;-81
2024/03/04 03:04:31;;;;;;;;;;;;;;;25.18;25.83;97281.75;5074387;28;20411;-82
2024/03/04 03:06:57;;;;;;;;;;;;;;;25.09;25.90;97274.03;5093183;28;19973;-81
2024/03/04 03:09:23;;;;;;;;;;;;;;;25.15;25.75;97280.63;5067706;28;20319;-81
2024/03/04 03:11:50;;;;;;;;;;;;;;;24.52;26.56;97275.38;5091321;28;20356;-81
2024/03/04 03:14:16;;;;;;;;;;;;;;;24.35;26.55;97276.78;5093060;28;20236;-81
2024/03/04 03:16:42;;;;;;;;;;;;;;;24.48;26.09;97280.31;5092078;28;19930;-81
2024/03/04 03:19:18;;;;;;;;;;;;;;;25.00;26.28;97273.19;5089353;28;19978;-81
2024/03/04 03:21:44;;;;;;;;;;;;;;;24.02;27.12;97281.91;5091370;28;19926;-81
2024/03/04 03:24:10;;;;;;;;;;;;;;;24.71;26.59;97279.09;5092189;28;19952;-81
2024/03/04 03:26:36;;;;;;;;;;;;;;;24.96;26.13;97278.16;5081088;28;19923;-81
2024/03/04 03:29:02;;;;;;;;;;;;;;;24.54;27.09;97286.91;5090867;28;19924;-81
2024/03/04 03:31:28;;;;;;;;;;;;;;;24.21;27.04;97282.09;5090525;28;19927;-81
2024/03/04 03:33:54;;;;;;;;;;;;;;;24.36;26.80;97283.19;5093354;28;19916;-81
2024/03/04 03:36:21;;;;;;;;;;;;;;;24.66;26.52;97279.66;5091867;28;19939;-81
2024/03/04 03:38:47;;;;;;;;;;;;;;;24.69;26.57;97281.56;5089761;28;19931;-81
2024/03/04 03:41:13;;;;;;;;;;;;;;;24.82;26.46;97271.06;5088269;28;19916;-81
2024/03/04 03:43:40;;;;;;;;;;;;;;;24.74;26.35;97275.34;5093009;28;20315;-81
2024/03/04 03:46:06;;;;;;;;;;;;;;;24.50;26.68;97277.84;5087076;28;19924;-81
2024/03/04 03:48:32;;;;;;;;;;;;;;;24.60;26.63;97273.06;5088744;28;19923;-81
2024/03/04 03:50:58;;;;;;;;;;;;;;;24.57;26.80;97271.97;5091981;28;19959;-81
2024/03/04 03:53:25;;;;;;;;;;;;;;;24.54;26.75;97266.47;5092511;28;20356;-81
2024/03/04 03:55:52;;;;;;;;;;;;;;;24.56;26.73;97273.19;5089822;28;19939;-81
2024/03/04 03:58:18;;;;;;;;;;;;;;;24.36;27.11;97280.38;5092231;28;19973;-81
2024/03/04 04:00:44;;;;;;;;;;;;;;;24.44;26.97;97267.63;5088166;28;19926;-81
2024/03/04 04:03:11;;;;;;;;;;;;;;;24.34;27.02;97275.19;5080574;28;19922;-81
2024/03/04 04:05:37;;;;;;;;;;;;;;;24.36;27.05;97267.13;5090378;28;20361;-81
2024/03/04 04:08:03;;;;;;;;;;;;;;;24.83;26.07;97264.22;5093069;28;19962;-81
2024/03/04 04:10:29;;;;;;;;;;;;;;;24.91;26.14;97276.75;5087968;28;20391;-80
2024/03/04 04:12:56;;;;;;;;;;;;;;;25.12;25.48;97273.13;5092376;28;20356;-81
2024/03/04 04:15:21;;;;;;;;;;;;;;;24.95;25.90;97274.56;5087901;28;20306;-81
2024/03/04 04:17:48;;;;;;;;;;;;;;;24.86;25.66;97268.91;5084301;28;19920;-81
2024/03/04 04:20:14;;;;;;;;;;;;;;;24.53;26.50;97270.50;5090551;28;19920;-81
2024/03/04 04:22:40;;;;;;;;;;;;;;;24.58;26.35;97272.75;5091115;28;19940;-81
2024/03/04 04:25:06;;;;;;;;;;;;;;;23.95;27.32;97270.16;5077995;28;19924;-79
2024/03/04 04:27:32;;;;;;;;;;;;;;;23.31;28.03;97268.66;5077099;28;19975;-81
2024/03/04 04:29:58;;;;;;;;;;;;;;;24.07;26.93;97272.16;5090983;28;19978;-81
2024/03/04 04:32:26;;;;;;;;;;;;;;;23.97;27.41;97271.25;5085321;28;19928;-81
2024/03/04 04:34:52;;;;;;;;;;;;;;;23.05;28.31;97264.25;5072780;28;19920;-82
2024/03/04 04:37:18;;;;;;;;;;;;;;;23.79;27.26;97265.47;5079262;28;20020;-81
2024/03/04 04:39:44;;;;;;;;;;;;;;;24.34;26.74;97263.22;5092344;28;20014;-81
2024/03/04 04:42:10;;;;;;;;;;;;;;;24.58;26.10;97267.13;5090353;28;19931;-81
2024/03/04 04:44:36;;;;;;;;;;;;;;;24.45;26.01;97277.63;5093073;28;19916;-82
2024/03/04 04:47:03;;;;;;;;;;;;;;;25.09;24.96;97274.03;5088927;28;20544;-81
2024/03/04 04:49:29;;;;;;;;;;;;;;;25.17;25.52;97278.13;5090971;28;20395;-81
2024/03/04 04:51:55;;;;;;;;;;;;;;;24.74;25.74;97280.97;5092831;28;19917;-82
2024/03/04 04:54:21;;;;;;;;;;;;;;;24.50;25.72;97275.03;5067234;28;20339;-81
2024/03/04 04:56:48;;;;;;;;;;;;;;;23.87;27.08;97277.25;5071931;28;19924;-81
2024/03/04 04:59:15;;;;;;;;;;;;;;;23.46;27.77;97272.59;5068187;28;19921;-81
2024/03/04 05:01:41;;;;;;;;;;;;;;;23.63;27.29;97276.84;5074692;28;19920;-81
2024/03/04 05:04:07;;;;;;;;;;;;;;;24.13;26.59;97273.19;5076016;28;19970;-81
2024/03/04 05:06:34;;;;;;;;;;;;;;;24.64;25.89;97280.09;5071356;28;20415;-81
2024/03/04 05:09:00;;;;;;;;;;;;;;;24.86;25.65;97274.53;5063935;28;20388;-81
2024/03/04 05:11:27;;;;;;;;;;;;;;;24.61;25.46;97269.03;5061659;28;19994;-82
2024/03/04 05:13:53;;;;;;;;;;;;;;;24.46;25.98;97268.75;5072434;28;19924;-82
2024/03/04 05:16:19;;;;;;;;;;;;;;;24.33;26.30;97275.66;5066170;28;19973;-83
2024/03/04 05:18:45;;;;;;;;;;;;;;;24.44;26.05;97278.88;5062962;28;19920;-82
2024/03/04 05:21:11;;;;;;;;;;;;;;;24.12;26.64;97279.22;5072826;28;19927;-82
2024/03/04 05:23:38;;;;;;;;;;;;;;;24.33;25.30;97276.47;5072286;28;19921;-82
2024/03/04 05:26:04;;;;;;;;;;;;;;;24.74;25.28;97275.34;5067152;28;20307;-83
2024/03/04 05:28:30;;;;;;;;;;;;;;;25.05;25.08;97276.19;5068157;28;20023;-83
2024/03/04 05:30:57;;;;;;;;;;;;;;;25.58;24.27;97276.16;5072300;28;19966;-83
2024/03/04 05:33:23;;;;;;;;;;;;;;;25.55;24.18;97277.88;5081904;28;19981;-82
2024/03/04 05:35:49;;;;;;;;;;;;;;;25.93;23.87;97275.44;5070029;28;19925;-82
2024/03/04 05:38:15;;;;;;;;;;;;;;;25.87;23.60;97276.53;5071139;28;20056;-82
2024/03/04 05:40:41;;;;;;;;;;;;;;;26.18;23.06;97277.25;5073118;28;19927;-82
2024/03/04 05:43:07;;;;;;;;;;;;;;;25.36;24.23;97282.59;5076669;28;19943;-81
2024/03/04 05:45:33;;;;;;;;;;;;;;;23.97;26.02;97288.09;5068527;28;19929;-82
2024/03/04 05:48:00;;;;;;;;;;;;;;;24.28;25.62;97281.84;5075508;28;19993;-83
2024/03/04 05:50:26;;;;;;;;;;;;;;;24.92;24.43;97283.94;5065106;28;19927;-82
2024/03/04 05:52:52;;;;;;;;;;;;;;;25.38;24.47;97280.09;5068181;28;20074;-81
2024/03/04 05:55:19;;;;;;;;;;;;;;;25.47;23.93;97287.81;5074686;28;19968;-82
2024/03/04 05:57:45;;;;;;;;;;;;;;;25.70;23.31;97289.28;5079168;28;19920;-83
2024/03/04 06:00:14;;;;;;;;;;;;;;;25.97;23.19;97287.34;5088979;28;20000;-82
2024/03/04 06:02:43;;;;;;;;;;;;;;;26.21;22.94;97284.75;5089627;28;19927;-82
2024/03/04 06:05:13;;;;;;;;;;;;;;;25.50;23.42;97294.53;5094716;28;19917;-82
2024/03/04 06:07:40;;;;;;;;;;;;;;;24.87;24.21;97295.75;5091317;28;19927;-82
2024/03/04 06:10:07;;;;;;;;;;;;;;;24.71;24.70;97304.34;5093317;28;19924;-82
2024/03/04 06:12:33;;;;;;;;;;;;;;;24.57;24.92;97300.03;5094651;28;20563;-82
2024/03/04 06:14:59;;;;;;;;;;;;;;;24.94;24.56;97305.94;5088788;28;20023;-82
2024/03/04 06:17:27;;;;;;;;;;;;;;;25.07;24.69;97309.44;5086433;28;19947;-81
2024/03/04 06:19:53;;;;;;;;;;;;;;;25.24;24.31;97317.19;5093050;28;19973;-82
2024/03/04 06:22:19;;;;;;;;;;;;;;;25.32;24.39;97304.41;5094558;28;19916;-82
2024/03/04 06:24:45;;;;;;;;;;;;;;;25.32;24.67;97314.91;5093977;28;19920;-82
2024/03/04 06:27:11;;;;;;;;;;;;;;;24.93;24.94;97315.59;5094720;28;19935;-82
2024/03/04 06:29:38;;;;;;;;;;;;;;;25.30;25.02;97320.97;5093902;28;19989;-82
2024/03/04 06:32:04;;;;;;;;;;;;;;;25.78;24.60;97321.50;5093647;28;19922;-82
2024/03/04 06:34:31;;;;;;;;;;;;;;;26.02;24.79;97319.72;5092553;28;19951;-81
2024/03/04 06:37:00;;;;;;;;;;;;;;;26.26;24.75;97319.91;5091429;28;20015;-82
2024/03/04 06:39:27;;;;;;;;;;;;;;;26.39;24.14;97312.91;5092895;28;19989;-82
2024/03/04 06:41:53;;;;;;;;;;;;;;;26.80;24.51;97314.34;5093603;28;20357;-82
2024/03/04 06:44:19;;;;;;;;;;;;;;;26.99;23.96;97321.50;5093535;28;19927;-82
2024/03/04 06:46:46;;;;;;;;;;;;;;;27.25;23.84;97321.94;5093270;28;19920;-82
2024/03/04 06:49:12;;;;;;;;;;;;;;;27.58;23.60;97316.38;5093272;28;19924;-82
2024/03/04 06:51:38;;;;;;;;;;;;;;;27.85;23.18;97321.88;5093160;28;20452;-82
2024/03/04 06:54:04;;;;;;;;;;;;;;;27.88;22.95;97321.72;5092281;28;20003;-82
2024/03/04 06:56:31;;;;;;;;;;;;;;;27.60;23.13;97325.13;5074297;28;20396;-82
2024/03/04 06:59:00;;;;;;;;;;;;;;;27.16;23.83;97324.78;5092815;28;19924;-82
2024/03/04 07:01:27;;;;;;;;;;;;;;;27.34;23.48;97327.53;5094075;28;19920;-82
2024/03/04 07:03:53;;;;;;;;;;;;;;;26.69;24.64;97325.28;5093446;28;20386;-82
2024/03/04 07:06:19;;;;;;;;;;;;;;;26.46;24.84;97331.53;5087564;28;19927;-82
2024/03/04 07:08:48;;;;;;;;;;;;;;;26.62;24.78;97334.03;5089591;28;19916;-82
2024/03/04 07:11:17;;;;;;;;;;;;;;;26.77;24.18;97332.16;5093971;28;19927;-82
2024/03/04 07:13:43;;;;;;;;;;;;;;;26.24;25.48;97322.41;5074047;28;20359;-82
2024/03/04 07:16:14;;;;;;;;;;;;;;;26.29;24.93;97325.41;5093917;28;19920;-82
2024/03/04 07:18:41;;;;;;;;;;;;;;;26.51;25.33;97328.84;5092457;28;20244;-82
2024/03/04 07:21:07;;;;;;;;;;;;;;;26.48;24.56;97331.84;5092617;28;19999;-82
2024/03/04 07:23:33;;;;;;;;;;;;;;;26.66;24.48;97323.38;5092517;28;19982;-82
2024/03/04 07:26:06;;;;;;;;;;;;;;;25.86;25.27;97334.81;5090865;28;19969;-82
2024/03/04 07:28:32;;;;;;;;;;;;;;;25.76;25.18;97333.22;5085397;28;20010;-82
2024/03/04 07:30:59;;;;;;;;;;;;;;;25.38;25.97;97336.31;5082773;28;19967;-82
2024/03/04 07:33:25;;;;;;;;;;;;;;;24.48;26.85;97330.81;5083284;28;19926;-82
2024/03/04 07:35:51;;;;;;;;;;;;;;;24.87;27.23;97334.28;5078139;28;19934;-82
2024/03/04 07:38:17;;;;;;;;;;;;;;;25.53;25.64;97330.97;5079382;28;19924;-82
2024/03/04 07:40:43;;;;;;;;;;;;;;;25.98;25.76;97324.69;5075717;28;19935;-82
2024/03/04 07:43:09;;;;;;;;;;;;;;;25.79;25.53;97332.28;5079585;28;19921;-82
2024/03/04 07:45:35;;;;;;;;;;;;;;;23.88;27.28;97324.44;5072859;28;19923;-82
2024/03/04 07:48:01;;;;;;;;;;;;;;;24.13;27.33;97328.47;5072432;28;19916;-82
2024/03/04 07:50:27;;;;;;;;;;;;;;;24.37;27.12;97333.22;5087892;28;20023;-82
2024/03/04 07:52:53;;;;;;;;;;;;;;;24.96;27.22;97334.34;5080790;28;20011;-82
2024/03/04 07:55:19;;;;;;;;;;;;;;;24.87;26.47;97329.44;5074880;28;19965;-83
2024/03/04 07:57:45;;;;;;;;;;;;;;;25.49;26.37;97332.31;5073346;28;19916;-82
2024/03/04 08:00:15;;;;;;;;;;;;;;;23.70;27.89;97327.06;5072328;28;20018;-82
2024/03/04 08:02:44;;;;;;;;;;;;;;;23.62;28.28;97327.75;5076308;28;20403;-82
2024/03/04 08:05:10;;;;;;;;;;;;;;;25.31;26.52;97325.34;5073511;28;19970;-83
2024/03/04 08:07:36;;;;;;;;;;;;;;;26.00;25.57;97322.19;5073571;28;19924;-82
2024/03/04 08:10:03;;;;;;;;;;;;;;;26.12;25.37;97318.50;5073192;28;19920;-82
2024/03/04 08:12:29;;;;;;;;;;;;;;;26.55;24.87;97318.25;5085862;28;21509;-82
2024/03/04 08:14:56;;;;;;;;;;;;;;;26.53;24.68;97317.16;5080958;28;19960;-82
2024/03/04 08:17:24;;;;;;;;;;;;;;;26.04;26.45;97317.22;5073818;28;19924;-82
2024/03/04 08:19:52;;;;;;;;;;;;;;;26.28;25.18;97321.03;5072135;28;19917;-82
2024/03/04 08:22:18;;;;;;;;;;;;;;;25.77;25.54;97319.94;5073967;28;20292;-82
2024/03/04 08:24:44;;;;;;;;;;;;;;;25.98;25.46;97319.84;5092337;28;19920;-82
2024/03/04 08:27:10;;;;;;;;;;;;;;;24.61;26.64;97325.94;5092976;28;19966;-82
2024/03/04 08:29:36;;;;;;;;;;;;;;;25.35;25.99;97333.63;5092908;28;19922;-82
2024/03/04 08:32:04;;;;;;;;;;;;;;;24.78;27.11;97332.19;5095489;28;19920;-82
2024/03/04 08:34:32;;;;;;;;;;;;;;;24.62;27.44;97329.56;5095774;28;20058;-82
2024/03/04 08:36:59;;;;;;;;;;;;;;;25.59;25.96;97320.66;5096599;28;19941;-82
2024/03/04 08:39:25;;;;;;;;;;;;;;;25.42;26.78;97322.13;5096719;28;19916;-82
2024/03/04 08:41:51;;;;;;;;;;;;;;;25.56;25.66;97327.19;5096531;28;19917;-82
2024/03/04 08:44:17;;;;;;;;;;;;;;;24.70;26.60;97328.03;5095922;28;19920;-82
2024/03/04 08:46:43;;;;;;;;;;;;;;;26.25;24.77;97319.16;5096659;28;19916;-82
2024/03/04 08:49:09;;;;;;;;;;;;;;;27.30;24.06;97315.66;5096231;28;20020;-82
2024/03/04 08:51:35;;;;;;;;;;;;;;;26.76;23.38;97322.16;5096304;28;19920;-82
2024/03/04 08:54:02;;;;;;;;;;;;;;;26.99;23.45;97309.47;5095681;28;19920;-83
2024/03/04 08:56:28;;;;;;;;;;;;;;;25.55;24.86;97327.69;5096747;28;19928;-82
2024/03/04 08:58:56;;;;;;;;;;;;;;;27.14;23.38;97313.19;5096295;28;19916;-83
2024/03/04 09:01:24;;;;;;;;;;;;;;;27.45;23.22;97319.38;5095655;28;20406;-83
2024/03/04 09:03:50;;;;;;;;;;;;;;;28.81;21.80;97310.13;5087934;28;19916;-83
2024/03/04 09:06:17;;;;;;;;;;;;;;;28.83;21.48;97312.47;5076044;28;20284;-83
2024/03/04 09:08:43;;;;;;;;;;;;;;;28.97;21.51;97306.84;5075710;28;20003;-82
2024/03/04 09:11:09;;;;;;;;;;;;;;;28.88;21.75;97309.75;5082479;28;20472;-83
2024/03/04 09:13:36;;;;;;;;;;;;;;;29.27;21.81;97302.78;5096373;28;19927;-83
2024/03/04 09:16:02;;;;;;;;;;;;;;;29.22;21.61;97300.63;5094672;28;19923;-83
2024/03/04 09:18:28;;;;;;;;;;;;;;;29.14;21.60;97298.66;5093160;28;19927;-83
2024/03/04 09:20:54;;;;;;;;;;;;;;;27.48;22.28;97301.53;5095304;28;19939;-83
2024/03/04 09:23:20;;;;;;;;;;;;;;;27.19;23.39;97298.47;5093392;28;20002;-83
2024/03/04 09:25:46;;;;;;;;;;;;;;;27.59;23.82;97298.97;5095168;28;19924;-83
2024/03/04 09:28:14;;;;;;;;;;;;;;;27.95;22.75;97301.63;5094886;28;19930;-83
2024/03/04 09:30:40;;;;;;;;;;;;;;;28.63;22.06;97304.66;5094049;28;19920;-83
2024/03/04 09:33:07;;;;;;;;;;;;;;;29.18;21.48;97294.41;5093788;28;19920;-83
2024/03/04 09:35:33;;;;;;;;;;;;;;;29.30;21.48;97301.03;5093268;28;19943;-83
2024/03/04 09:37:59;;;;;;;;;;;;;;;29.47;20.96;97298.47;5094928;28;20022;-83
2024/03/04 09:40:26;;;;;;;;;;;;;;;29.62;20.35;97294.34;5094781;28;20003;-83
2024/03/04 09:42:52;;;;;;;;;;;;;;;29.45;20.63;97298.19;5094819;28;19924;-83
2024/03/04 09:45:21;;;;;;;;;;;;;;;29.52;21.19;97292.13;5095135;28;20019;-83
2024/03/04 09:47:50;;;;;;;;;;;;;;;28.76;21.46;97288.19;5093292;28;19928;-83
2024/03/04 09:50:16;;;;;;;;;;;;;;;28.70;22.55;97290.13;5094381;28;19921;-83
2024/03/04 09:52:44;;;;;;;;;;;;;;;29.18;20.98;97279.47;5094123;28;19931;-83
2024/03/04 09:55:10;;;;;;;;;;;;;;;29.60;21.89;97285.56;5094253;28;19924;-83
2024/03/04 09:57:37;;;;;;;;;;;;;;;30.11;21.30;97284.28;5093041;28;19928;-83
2024/03/04 10:00:03;;;;;;;;;;;;;;;30.26;21.45;97274.44;5093971;28;19928;-83
2024/03/04 10:02:29;;;;;;;;;;;;;;;30.33;20.57;97276.09;5093097;28;19943;-83
2024/03/04 10:04:56;;;;;;;;;;;;;;;29.57;21.08;97278.06;5099155;28;20395;-83
2024/03/04 10:07:23;;;;;;;;;;;;;;;29.88;21.02;97278.31;5076357;28;20124;-83
2024/03/04 10:09:56;;;;;;;;;;;;;;;30.05;20.60;97285.00;5092841;28;19920;-83
2024/03/04 10:12:24;;;;;;;;;;;;;;;29.54;21.35;97281.09;5093865;28;19951;-83
2024/03/04 10:14:59;;;;;;;;;;;;;;;30.09;20.68;97277.06;5094050;28;19927;-83
2024/03/04 10:17:28;;;;;;;;;;;;;;;30.50;20.04;97280.69;5094288;28;19973;-83
2024/03/04 10:19:58;;;;;;;;;;;;;;;31.19;19.76;97276.03;5093159;28;19928;-83
2024/03/04 10:22:25;;;;;;;;;;;;;;;29.55;20.18;97276.97;5093387;28;19950;-83
2024/03/04 10:25:04;;;;;;;;;;;;;;;28.38;22.39;97268.44;5094219;28;19927;-83
2024/03/04 10:27:35;;;;;;;;;;;;;;;29.21;22.20;97276.47;5094087;28;19928;-83
2024/03/04 10:30:14;;;;;;;;;;;;;;;30.27;21.01;97267.50;5085330;28;19943;-83
2024/03/04 10:32:48;;;;;;;;;;;;;;;30.14;21.02;97272.75;5089627;28;19986;-83
2024/03/04 10:35:15;;;;;;;;;;;;;;;30.80;20.66;97272.00;5093424;28;19965;-83
2024/03/04 10:37:41;;;;;;;;;;;;;;;31.39;19.85;97262.53;5093708;28;19928;-83
2024/03/04 10:40:11;;;;;;;;;;;;;;;30.71;20.86;97256.72;5093505;28;19920;-83
2024/03/04 10:42:41;;;;;;;;;;;;;;;30.33;19.90;97247.78;5093815;28;19919;-83
2024/03/04 10:45:08;;;;;;;;;;;;;;;30.71;19.99;97253.88;5075183;28;20326;-83
2024/03/04 10:47:35;;;;;;;;;;;;;;;29.29;21.59;97251.41;5093038;28;19920;-83
2024/03/04 10:50:04;;;;;;;;;;;;;;;29.94;21.17;97245.19;5093884;28;19926;-83
2024/03/04 10:52:30;;;;;;;;;;;;;;;30.23;20.56;97237.84;5093723;28;20003;-83
2024/03/04 10:54:58;;;;;;;;;;;;;;;30.40;20.42;97241.69;5092410;28;19927;-83
2024/03/04 10:57:27;;;;;;;;;;;;;;;30.02;21.16;97235.00;5094792;28;20011;-83
2024/03/04 10:59:53;;;;;;;;;;;;;;;30.37;20.71;97226.47;5093587;28;19973;-81
2024/03/04 11:02:24;;;;;;;;;;;;;;;30.94;20.54;97225.78;5092802;28;19920;-81
2024/03/04 11:04:51;;;;;;;;;;;;;;;30.93;20.03;97218.56;5088125;28;19920;-81
2024/03/04 11:07:21;;;;;;;;;;;;;;;29.73;21.34;97229.44;5092638;28;19920;-84
2024/03/04 11:09:49;;;;;;;;;;;;;;;29.52;21.48;97235.56;5096308;28;19927;-84
2024/03/04 11:12:17;;;;;;;;;;;;;;;29.89;22.23;97220.44;5094504;28;19964;-84
2024/03/04 11:14:50;;;;;;;;;;;;;;;30.95;21.20;97211.09;5092139;28;19924;-83
2024/03/04 11:17:22;;;;;;;;;;;;;;;31.64;20.05;97215.56;5092216;28;19923;-83
2024/03/04 11:19:48;;;;;;;;;;;;;;;32.06;19.39;97220.47;5093051;28;19920;-84
2024/03/04 11:22:14;;;;;;;;;;;;;;;29.89;21.15;97216.81;5090762;28;20576;-83
2024/03/04 11:24:41;;;;;;;;;;;;;;;29.32;21.04;97224.94;5092315;28;20274;-83
2024/03/04 11:27:07;;;;;;;;;;;;;;;28.70;21.65;97216.69;5088610;28;19924;-83
2024/03/04 11:29:35;;;;;;;;;;;;;;;28.72;22.20;97223.41;5092390;28;20330;-83
2024/03/04 11:32:03;;;;;;;;;;;;;;;30.53;21.15;97213.75;5091957;28;19974;-83
2024/03/04 11:34:29;;;;;;;;;;;;;;;30.64;21.59;97211.06;5093322;28;20303;-84
2024/03/04 11:36:59;;;;;;;;;;;;;;;30.69;21.10;97208.25;5090472;28;20010;-84
2024/03/04 11:39:25;;;;;;;;;;;;;;;30.74;21.33;97207.53;5089938;28;19928;-84
2024/03/04 11:41:52;;;;;;;;;;;;;;;30.99;20.94;97203.19;5090928;28;19928;-83
2024/03/04 11:44:28;;;;;;;;;;;;;;;31.06;20.98;97202.72;5090547;28;19927;-84
2024/03/04 11:46:55;;;;;;;;;;;;;;;31.36;20.91;97195.47;5089367;28;19920;-84
2024/03/04 11:49:24;;;;;;;;;;;;;;;30.50;21.92;97187.19;5070114;28;20300;-83
2024/03/04 11:51:55;;;;;;;;;;;;;;;31.19;21.10;97185.28;5090255;28;19920;-84
2024/03/04 11:54:29;;;;;;;;;;;;;;;30.63;22.08;97198.16;5089639;28;19927;-81
2024/03/04 11:56:56;;;;;;;;;;;;;;;31.40;21.16;97198.06;5087494;28;20111;-84
2024/03/04 11:59:23;;;;;;;;;;;;;;;30.54;21.50;97193.44;5083299;28;19923;-83
2024/03/04 12:01:50;;;;;;;;;;;;;;;30.22;22.16;97194.59;5089418;28;19920;-84
2024/03/04 12:04:17;;;;;;;;;;;;;;;28.69;23.21;97196.13;5090155;28;19916;-84
2024/03/04 12:06:44;;;;;;;;;;;;;;;29.25;23.15;97192.22;5091001;28;20054;-84
2024/03/04 12:09:10;;;;;;;;;;;;;;;29.46;22.86;97189.41;5095335;28;20049;-84
2024/03/04 12:11:36;;;;;;;;;;;;;;;30.58;22.36;97184.69;5095905;28;20264;-83
2024/03/04 12:14:04;;;;;;;;;;;;;;;30.65;21.97;97192.75;5096353;28;19920;-83
2024/03/04 12:16:30;;;;;;;;;;;;;;;30.76;21.26;97185.13;5097273;28;20007;-84
2024/03/04 12:18:56;;;;;;;;;;;;;;;30.64;21.66;97191.97;5097031;28;19922;-84
2024/03/04 12:21:24;;;;;;;;;;;;;;;30.15;21.86;97180.88;5096375;28;19924;-84
2024/03/04 12:23:50;;;;;;;;;;;;;;;30.93;21.44;97187.38;5094295;28;19920;-84
2024/03/04 12:26:16;;;;;;;;;;;;;;;31.14;21.12;97183.94;5094046;28;19993;-84
2024/03/04 12:28:42;;;;;;;;;;;;;;;31.15;21.09;97188.34;5085994;28;19928;-84
2024/03/04 12:31:12;;;;;;;;;;;;;;;30.79;21.15;97186.19;5079635;28;20426;-83
2024/03/04 12:33:38;;;;;;;;;;;;;;;30.22;21.49;97188.94;5082252;28;19924;-83
2024/03/04 12:36:08;;;;;;;;;;;;;;;30.14;21.35;97193.47;5086389;28;20388;-84
2024/03/04 12:38:34;;;;;;;;;;;;;;;28.75;23.04;97197.00;5087826;28;20010;-83
2024/03/04 12:41:00;;;;;;;;;;;;;;;25.68;27.61;97190.56;5089260;28;20398;-83
2024/03/04 12:43:26;;;;;;;;;;;;;;;24.31;29.86;97196.78;5090239;28;19946;-83
2024/03/04 12:45:52;;;;;;;;;;;;;;;23.91;31.12;97203.00;5085441;28;19950;-83